Clay Township, Michigan
Current Conditions -  °F | °C
As of 10:58 PM on Sunday 23 Nov 2014 (Local Time) from KMTC Reporting Station
Light Rain Light Rain  
Wind Chill: 42°   Ceiling: 500
Heat Index: 48°   Visibility: 6mi
Dew Point: 48°   Wind: 17mph
Humidity: 100%   Direction: 120°ESE
Pressure: 29.32"   Gusts: NA
Location:  42.6418°N, 82.5677°W
Report Text: KMTC 240358Z AUTO 12015KT 6SM R19/5000FT -RA BR BKN005 OVC012 09/09 A2932 RMK AO2 SLP934 P0022 T00890089
Loading
Personal Weather Stations






























Interactive Weather Map New forecast layout! Learn more

10-Day Weather Forecast

Advertisements
Track Severe Weather on mobile